Time;durP1;ratioP1;P1;durP2;ratioP2;P2;SDS_P1;SDS_P2;PMS_P1;PMS_P2;Temp;Humidity;BMP_temperature;BMP_pressure;BME280_temperature;BME280_humidity;BME280_pressure;Samples;Min_cycle;Max_cycle;Signal;HPM_P1;HPM_P2
2023/03/01 00:01:34;;;;;;;11.63;7.43;;;-0.50;99.90;;;-144.05;55.68;57044.25;5016824;28;20043;-81
2023/03/01 00:04:00;;;;;;;13.07;7.28;;;-0.60;99.90;;;-144.05;55.94;57054.88;5016160;28;20053;-81
2023/03/01 00:06:27;;;;;;;15.00;9.50;;;-0.60;99.90;;;-144.05;56.16;57046.38;5015193;28;20038;-82
2023/03/01 00:08:54;;;;;;;12.00;7.40;;;-0.60;99.90;;;-144.05;56.14;57044.25;5016962;28;20460;-83
2023/03/01 00:11:29;;;;;;;13.93;8.00;;;-0.70;99.90;;;-144.05;55.70;57052.75;4999131;28;20049;-82
2023/03/01 00:14:00;;;;;;;8.18;6.13;;;-0.70;99.90;;;-144.05;55.88;57018.75;5017085;28;20107;-84
2023/03/01 00:16:39;;;;;;;14.32;8.05;;;-0.70;99.90;;;-144.05;56.19;57052.75;5015609;28;20508;-83
2023/03/01 00:19:17;;;;;;;14.23;7.53;;;-0.80;99.90;;;-144.05;55.94;57044.25;5017369;28;20045;-79
2023/03/01 00:21:43;;;;;;;13.10;8.32;;;-0.80;99.90;;;-144.05;56.17;57031.50;5000144;28;20034;-83
2023/03/01 00:24:10;;;;;;;12.13;8.45;;;-0.80;99.90;;;-144.05;56.28;57061.22;5017404;28;20034;-82
2023/03/01 00:26:36;;;;;;;12.40;8.43;;;-0.80;99.90;;;-144.05;56.68;57052.75;5015828;28;20040;-80
2023/03/01 00:29:03;;;;;;;14.35;7.93;;;-0.80;99.90;;;-144.05;56.36;57065.47;5016845;28;20519;-82
2023/03/01 00:31:33;;;;;;;14.70;8.02;;;-0.80;99.90;;;-144.05;56.31;57033.63;5016135;28;20431;-82
2023/03/01 00:34:04;;;;;;;15.95;8.75;;;-0.90;99.90;;;-144.05;56.47;57048.50;5014332;28;20034;-83
2023/03/01 00:36:36;;;;;;;12.40;7.80;;;-1.00;99.90;;;-144.05;56.66;57078.22;5015900;28;20030;-81
2023/03/01 00:39:05;;;;;;;13.68;7.93;;;-1.00;99.90;;;-144.05;57.02;57065.47;5031063;28;20386;-81
2023/03/01 00:41:31;;;;;;;12.00;8.43;;;-1.10;99.90;;;-144.05;57.23;57063.34;5013989;28;20041;-81
2023/03/01 00:43:57;;;;;;;14.82;8.25;;;-1.10;99.90;;;-144.05;57.83;57063.34;5014339;28;20042;-83
2023/03/01 00:46:26;;;;;;;15.00;8.95;;;-1.10;99.90;;;-144.05;58.11;57052.75;5014780;28;20369;-81
2023/03/01 00:48:53;;;;;;;16.50;9.00;;;-1.20;99.90;;;-144.05;57.97;57040.00;5014509;28;20030;-82
2023/03/01 00:51:28;;;;;;;17.95;9.15;;;-1.20;99.90;;;-144.05;58.10;57048.50;5015893;28;20053;-84
2023/03/01 00:53:59;;;;;;;14.73;8.88;;;-1.20;99.90;;;-144.05;58.60;57052.75;5013410;28;20026;-81
2023/03/01 00:56:27;;;;;;;12.75;8.20;;;-1.20;99.90;;;-144.05;58.46;57040.00;5015276;28;20516;-82
2023/03/01 00:58:52;;;;;;;18.88;9.18;;;-1.10;99.90;;;-144.05;57.99;57056.97;5015628;28;20022;-83
2023/03/01 01:01:27;;;;;;;16.48;9.10;;;-1.10;99.90;;;-144.05;57.74;57071.84;5015428;28;20049;-83
2023/03/01 01:04:09;;;;;;;18.90;8.50;;;-1.10;99.90;;;-144.05;58.29;57048.50;5016494;28;20025;-82
2023/03/01 01:06:43;;;;;;;17.27;9.88;;;-1.20;99.90;;;-144.05;58.43;57040.00;5014728;28;20030;-84
2023/03/01 01:09:17;;;;;;;19.17;9.23;;;-1.30;99.90;;;-144.05;58.26;57056.97;5014720;28;20032;-81
2023/03/01 01:11:50;;;;;;;13.38;8.85;;;-1.30;99.90;;;-144.05;58.24;57065.47;5015441;28;20034;-81
2023/03/01 01:14:18;;;;;;;16.45;9.20;;;-1.50;99.90;;;-144.05;58.53;57031.50;5013586;28;20684;-82
2023/03/01 01:16:45;;;;;;;19.30;9.93;;;-1.50;99.90;;;-144.05;58.90;57065.47;5015780;28;20033;-82
2023/03/01 01:19:13;;;;;;;19.00;10.20;;;-1.60;99.90;;;-144.05;59.25;57063.34;5016331;28;20026;-80
2023/03/01 01:21:39;;;;;;;15.95;9.82;;;-1.60;99.90;;;-144.05;59.98;57056.97;5013547;28;20033;-82
2023/03/01 01:24:06;;;;;;;15.77;9.60;;;-1.60;99.90;;;-144.05;59.57;57076.09;5014452;28;20397;-82
2023/03/01 01:26:34;;;;;;;16.45;9.57;;;-1.60;99.90;;;-144.05;59.51;57069.72;5012857;28;20026;-83
2023/03/01 01:29:03;;;;;;;20.08;10.82;;;-1.60;99.90;;;-144.05;59.48;57048.50;5015001;28;20381;-83
2023/03/01 01:31:31;;;;;;;21.25;10.98;;;-1.70;99.90;;;-144.05;59.89;57052.75;5022120;28;20040;-83
2023/03/01 01:34:00;;;;;;;21.40;11.20;;;-1.60;99.90;;;-144.05;60.21;57052.75;5028565;28;20037;-83
2023/03/01 01:36:27;;;;;;;20.15;10.07;;;-1.70;99.90;;;-144.05;60.12;57056.97;5016561;28;20069;-84
2023/03/01 01:38:53;;;;;;;20.38;11.25;;;-1.80;99.90;;;-144.05;60.57;57048.50;5014276;28;20506;-82
2023/03/01 01:41:21;;;;;;;22.48;10.75;;;-1.80;99.90;;;-144.05;60.68;57065.47;5012282;28;20040;-83
2023/03/01 01:44:17;;;;;;;24.88;10.82;;;-1.70;99.90;;;-144.05;60.83;57063.34;5013902;28;20048;-83
2023/03/01 01:47:14;;;;;;;18.20;10.23;;;-1.80;99.90;;;-144.05;60.99;57067.59;5013713;28;20095;-83
2023/03/01 01:49:50;;;;;;;18.00;10.77;;;-1.70;99.90;;;-144.05;61.26;57044.25;5013628;28;20034;-83
2023/03/01 01:52:25;;;;;;;19.25;11.13;;;-1.70;99.90;;;-144.05;60.83;57054.88;5028728;28;20485;-81
2023/03/01 01:55:11;;;;;;;14.68;8.82;;;-1.60;99.90;;;-144.05;60.73;57090.97;5012845;28;20413;-83
2023/03/01 01:57:48;;;;;;;18.27;9.63;;;-1.60;99.90;;;-144.05;60.29;57056.97;5012961;28;20401;-81
2023/03/01 02:00:22;;;;;;;14.82;9.30;;;-1.50;99.90;;;-144.05;60.05;57056.97;5012835;28;20387;-82
2023/03/01 02:03:04;;;;;;;18.38;8.77;;;-1.50;99.90;;;-144.05;59.91;57073.97;5011564;28;20034;-82
2023/03/01 02:05:50;;;;;;;15.50;9.35;;;-1.50;99.90;;;-144.05;59.97;57046.38;5011507;28;20036;-81
2023/03/01 02:08:21;;;;;;;14.50;8.90;;;-1.50;99.90;;;-144.05;60.04;57040.00;5010653;28;20034;-82
2023/03/01 02:10:51;;;;;;;22.58;10.07;;;-1.60;99.90;;;-144.05;60.52;57054.88;5011240;28;20423;-83
2023/03/01 02:13:17;;;;;;;18.20;9.07;;;-1.60;99.90;;;-144.05;60.15;57086.72;5014065;28;20026;-84
2023/03/01 02:15:44;;;;;;;16.60;9.13;;;-1.70;99.90;;;-144.05;60.57;57067.59;5014106;28;20052;-83
2023/03/01 02:18:18;;;;;;;16.27;8.80;;;-1.70;99.90;;;-144.05;60.38;57095.22;5030128;28;20033;-82
2023/03/01 02:21:04;;;;;;;17.55;8.88;;;-1.70;99.90;;;-144.05;60.83;57069.72;5015694;28;20037;-82
2023/03/01 02:23:32;;;;;;;14.48;8.55;;;-1.70;99.90;;;-144.05;60.52;57040.00;5013983;28;20057;-81
2023/03/01 02:26:40;;;;;;;14.50;8.57;;;-1.70;99.90;;;-144.05;60.41;57069.72;5017591;28;20025;-82
2023/03/01 02:29:06;;;;;;;17.85;8.77;;;-1.70;99.90;;;-144.05;60.58;57080.34;5011839;28;20029;-83
2023/03/01 02:31:42;;;;;;;15.52;9.05;;;-1.70;99.90;;;-144.05;60.90;57044.25;5027795;28;20109;-80
2023/03/01 02:34:17;;;;;;;17.42;9.10;;;-1.60;99.90;;;-144.05;60.46;57084.59;5011938;28;20022;-81
2023/03/01 02:37:00;;;;;;;14.82;9.30;;;-1.60;99.90;;;-144.05;60.30;57056.97;5013271;28;20113;-82
2023/03/01 02:39:37;;;;;;;16.58;9.70;;;-1.60;99.90;;;-144.05;60.45;57076.09;5012459;28;20465;-81
2023/03/01 02:42:05;;;;;;;15.70;9.30;;;-1.60;99.90;;;-144.05;60.73;57054.88;5012879;28;20040;-81
2023/03/01 02:44:32;;;;;;;18.00;9.13;;;-1.60;99.90;;;-144.05;60.11;57067.59;5011395;28;20383;-82
2023/03/01 02:47:04;;;;;;;16.52;9.07;;;-1.50;99.90;;;-144.05;60.21;57059.09;5012169;28;20038;-82
2023/03/01 02:49:35;;;;;;;14.20;8.90;;;-1.50;99.90;;;-144.05;59.80;57063.34;5012148;28;20355;-82
2023/03/01 02:52:41;;;;;;;15.52;9.50;;;-1.40;99.90;;;-144.05;59.73;57061.22;5010819;28;20061;-81
2023/03/01 02:55:17;;;;;;;17.20;8.05;;;-1.50;99.90;;;-144.05;60.17;57044.25;5012477;28;20435;-82
2023/03/01 02:57:50;;;;;;;14.90;8.80;;;-1.50;99.90;;;-144.05;59.71;57033.63;5012780;28;20437;-81
2023/03/01 03:00:39;;;;;;;16.05;9.32;;;-1.50;99.90;;;-144.05;59.72;57071.84;5011631;28;20135;-83
2023/03/01 03:03:07;;;;;;;16.00;8.63;;;-1.50;99.90;;;-144.05;60.11;57052.75;5013082;28;20034;-83
2023/03/01 03:08:03;;;;;;;18.05;8.93;;;-1.60;99.90;;;-144.05;59.87;57052.75;5053124;28;20061;-76
2023/03/01 03:10:36;;;;;;;16.38;9.38;;;-1.70;99.90;;;-144.05;60.01;57082.47;5053476;28;20037;-76
2023/03/01 03:13:14;;;;;;;15.73;9.57;;;-1.70;99.90;;;-144.05;60.21;57084.59;5054222;28;20028;-74
2023/03/01 03:15:43;;;;;;;15.27;9.05;;;-1.80;99.90;;;-144.05;60.38;57061.22;5054333;28;20025;-76
2023/03/01 03:18:15;;;;;;;19.30;9.32;;;-1.80;99.90;;;-144.05;60.19;57042.13;5052897;28;20484;-76
2023/03/01 03:20:44;;;;;;;14.38;9.52;;;-1.80;99.90;;;-144.05;60.42;57056.97;5054717;28;20033;-73
2023/03/01 03:23:10;;;;;;;16.60;9.60;;;-1.90;99.90;;;-144.05;60.56;57052.75;5053448;28;20029;-76
2023/03/01 03:25:37;;;;;;;17.88;10.18;;;-1.90;99.90;;;-144.05;60.87;57046.38;5051726;28;20117;-77
2023/03/01 03:28:09;;;;;;;19.77;10.02;;;-1.90;99.90;;;-144.05;60.57;57027.25;5053551;28;20480;-73
2023/03/01 03:30:39;;;;;;;15.18;8.82;;;-2.00;99.90;;;-144.05;60.68;57063.34;5054606;28;20053;-76
2023/03/01 03:33:07;;;;;;;16.70;9.75;;;-2.00;99.90;;;-144.05;61.00;57076.09;5053488;28;20048;-74
2023/03/01 03:35:47;;;;;;;19.10;9.68;;;-2.00;99.90;;;-144.05;61.23;57054.88;5053729;28;20191;-76
2023/03/01 03:38:16;;;;;;;17.40;9.90;;;-2.10;99.90;;;-144.05;61.32;57095.22;5056538;28;20032;-74
2023/03/01 03:40:49;;;;;;;19.15;9.98;;;-2.10;99.90;;;-144.05;61.31;57035.75;5057790;28;20123;-75
2023/03/01 03:43:23;;;;;;;13.10;8.25;;;-2.10;99.90;;;-144.05;61.23;57056.97;5071823;28;20037;-76
2023/03/01 03:45:51;;;;;;;14.27;8.65;;;-2.20;99.90;;;-144.05;61.50;57054.88;5056723;28;20066;-75
2023/03/01 03:48:18;;;;;;;18.17;9.45;;;-2.10;99.90;;;-144.05;61.18;57033.63;5058524;28;20024;-76
2023/03/01 03:50:55;;;;;;;17.38;9.45;;;-2.00;99.90;;;-144.05;61.08;57061.22;5055804;28;20065;-76
2023/03/01 03:53:26;;;;;;;18.42;10.32;;;-2.10;99.90;;;-144.05;61.28;57061.22;5056613;28;20029;-73
2023/03/01 03:55:56;;;;;;;19.85;11.15;;;-2.10;99.90;;;-144.05;61.10;57069.72;5064536;28;20036;-73
2023/03/01 03:58:25;;;;;;;17.77;9.13;;;-2.10;99.90;;;-144.05;61.20;57067.59;5056503;28;20025;-75
2023/03/01 04:00:56;;;;;;;17.98;11.00;;;-2.10;99.90;;;-144.05;61.33;57048.50;5055957;28;20021;-77
2023/03/01 04:03:26;;;;;;;16.55;9.32;;;-2.20;99.90;;;-144.05;61.25;57061.22;5054482;28;20052;-77
2023/03/01 04:05:52;;;;;;;19.05;10.32;;;-2.20;99.90;;;-144.05;61.20;57065.47;5056756;28;20436;-77
2023/03/01 04:08:23;;;;;;;20.33;10.13;;;-2.20;99.90;;;-144.05;61.89;57050.63;5057039;28;20120;-77
2023/03/01 04:10:58;;;;;;;17.83;9.32;;;-2.20;99.90;;;-144.05;61.70;57086.72;5057618;28;20033;-77
2023/03/01 04:13:25;;;;;;;15.40;9.32;;;-2.30;99.90;;;-144.05;61.93;57063.34;5058572;28;20021;-75
2023/03/01 04:15:54;;;;;;;19.00;10.07;;;-2.30;99.90;;;-144.05;62.06;57033.63;5074301;28;20528;-74
2023/03/01 04:18:24;;;;;;;18.98;10.35;;;-2.40;99.90;;;-144.05;62.54;57052.75;5058257;28;20033;-73
2023/03/01 04:20:55;;;;;;;17.90;9.63;;;-2.40;99.90;;;-144.05;62.37;57065.47;5073112;28;20036;-74
2023/03/01 04:23:21;;;;;;;20.65;10.40;;;-2.40;99.90;;;-144.05;62.03;57101.59;5055076;28;20044;-74
2023/03/01 04:25:54;;;;;;;19.52;10.05;;;-2.40;99.90;;;-144.05;62.02;57080.34;5059213;28;20021;-75
2023/03/01 04:28:34;;;;;;;20.08;10.80;;;-2.40;99.90;;;-144.05;62.35;57069.72;5057410;28;20036;-77
2023/03/01 04:31:16;;;;;;;25.17;11.27;;;-2.40;99.90;;;-144.05;62.25;57067.59;5057500;28;20040;-74
2023/03/01 04:33:53;;;;;;;19.05;10.35;;;-2.50;99.90;;;-144.05;62.69;57080.34;5056253;28;20024;-76
2023/03/01 04:36:24;;;;;;;19.08;10.27;;;-2.50;99.90;;;-144.05;62.69;57044.25;5055492;28;20032;-76
2023/03/01 04:38:57;;;;;;;23.55;10.98;;;-2.50;99.90;;;-144.05;63.00;57076.09;5055991;28;20104;-75
2023/03/01 04:41:25;;;;;;;19.02;10.30;;;-2.50;99.90;;;-144.05;62.86;57050.63;5071421;28;20040;-77
2023/03/01 04:43:51;;;;;;;22.42;11.05;;;-2.40;99.90;;;-144.05;62.67;57033.63;5055566;28;20123;-77
2023/03/01 04:46:20;;;;;;;19.95;10.50;;;-2.40;99.90;;;-144.05;62.65;57054.88;5054475;28;20049;-76
2023/03/01 04:48:47;;;;;;;17.70;9.52;;;-2.30;99.90;;;-144.05;62.40;57044.25;5053020;28;20029;-77
2023/03/01 04:51:13;;;;;;;18.88;11.10;;;-2.30;99.90;;;-144.05;62.36;57056.97;5056332;28;20029;-77
2023/03/01 04:53:41;;;;;;;20.20;9.57;;;-2.30;99.90;;;-144.05;62.37;57069.72;5057041;28;20383;-76
2023/03/01 04:56:07;;;;;;;16.10;10.52;;;-2.30;99.90;;;-144.05;62.28;57065.47;5056108;28;20078;-76
2023/03/01 04:58:33;;;;;;;20.02;10.55;;;-2.30;99.90;;;-144.05;62.43;57059.09;5054750;28;20116;-75
2023/03/01 05:00:59;;;;;;;17.58;10.48;;;-2.40;99.90;;;-144.05;62.30;57082.47;5056745;28;20036;-77
2023/03/01 05:03:25;;;;;;;17.15;10.88;;;-2.40;99.90;;;-144.05;62.82;57071.84;5057019;28;20052;-73
2023/03/01 05:05:52;;;;;;;19.77;10.52;;;-2.50;99.90;;;-144.05;63.02;57059.09;5057828;28;20056;-74
2023/03/01 05:08:20;;;;;;;17.65;10.68;;;-2.40;99.90;;;-144.05;62.96;57071.84;5056052;28;20092;-73
2023/03/01 05:10:52;;;;;;;17.17;10.63;;;-2.40;99.90;;;-144.05;62.84;57035.75;5072227;28;20099;-74
2023/03/01 05:13:20;;;;;;;17.73;10.55;;;-2.40;99.90;;;-144.05;62.30;57040.00;5057325;28;20480;-74
2023/03/01 05:15:59;;;;;;;17.38;10.48;;;-2.40;99.90;;;-144.05;62.55;57088.84;5057164;28;20108;-77
2023/03/01 05:18:28;;;;;;;17.13;10.68;;;-2.40;99.90;;;-144.05;62.82;57071.84;5056378;28;20067;-73
2023/03/01 05:21:00;;;;;;;16.33;11.07;;;-2.40;99.90;;;-144.05;62.71;57065.47;5054319;28;20106;-76
2023/03/01 05:23:26;;;;;;;16.70;10.85;;;-2.50;99.90;;;-144.05;63.14;57078.22;5056242;28;20029;-74
2023/03/01 05:25:52;;;;;;;21.98;11.27;;;-2.50;99.90;;;-144.05;63.12;57054.88;5053099;28;20186;-76
2023/03/01 05:28:20;;;;;;;18.10;10.75;;;-2.40;99.90;;;-144.05;62.87;57069.72;5053132;28;20492;-77
2023/03/01 05:30:47;;;;;;;19.45;11.23;;;-2.40;99.90;;;-144.05;62.81;57067.59;5056479;28;20070;-76
2023/03/01 05:33:13;;;;;;;18.02;10.63;;;-2.30;99.90;;;-144.05;62.58;57076.09;5056261;28;20028;-74
2023/03/01 05:35:43;;;;;;;19.75;10.73;;;-2.30;99.90;;;-144.05;62.94;57090.97;5057103;28;20021;-79
2023/03/01 05:38:14;;;;;;;19.75;10.45;;;-2.30;99.90;;;-144.05;62.61;57046.38;5058812;28;20040;-78
2023/03/01 05:40:44;;;;;;;19.67;11.18;;;-2.30;99.90;;;-144.05;62.62;57101.59;5058587;28;20106;-77
2023/03/01 05:43:13;;;;;;;17.88;11.77;;;-2.30;99.90;;;-144.05;62.40;57050.63;5056878;28;20054;-76
2023/03/01 05:45:40;;;;;;;21.00;11.23;;;-2.30;99.90;;;-144.05;62.19;57065.47;5059641;28;20085;-76
2023/03/01 05:48:08;;;;;;;18.88;11.40;;;-2.30;99.90;;;-144.05;62.13;57042.13;5060751;28;20088;-77
2023/03/01 05:50:40;;;;;;;25.65;11.45;;;-2.50;99.90;;;-144.05;62.58;57078.22;5057100;28;20033;-77
2023/03/01 05:53:13;;;;;;;19.20;10.68;;;-2.50;99.90;;;-144.05;62.84;57073.97;5061203;28;20033;-76
2023/03/01 05:55:40;;;;;;;24.67;11.30;;;-2.50;99.90;;;-144.05;62.96;57054.88;5059801;28;20132;-76
2023/03/01 05:58:13;;;;;;;21.08;11.45;;;-2.60;99.90;;;-144.05;63.06;57086.72;5057965;28;20049;-74
2023/03/01 06:00:40;;;;;;;20.83;11.57;;;-2.60;99.90;;;-144.05;63.34;57052.75;5057411;28;20108;-77
2023/03/01 06:03:06;;;;;;;20.88;9.95;;;-2.60;99.90;;;-144.05;63.67;57076.09;5056979;28;20557;-77
2023/03/01 06:05:32;;;;;;;18.98;11.52;;;-2.60;99.90;;;-144.05;63.42;57069.72;5057835;28;20100;-76
2023/03/01 06:08:03;;;;;;;19.27;12.13;;;-2.70;99.90;;;-144.05;63.48;57067.59;5076785;28;20192;-75
2023/03/01 06:10:29;;;;;;;20.23;12.68;;;-2.70;99.90;;;-144.05;64.05;57056.97;5074529;28;20135;-76
2023/03/01 06:12:56;;;;;;;23.15;12.70;;;-2.70;99.90;;;-144.05;63.60;57044.25;5055664;28;20020;-76
2023/03/01 06:15:22;;;;;;;23.60;11.52;;;-2.70;99.90;;;-144.05;63.99;57065.47;5059160;28;20025;-76
2023/03/01 06:17:49;;;;;;;24.35;12.80;;;-2.70;99.90;;;-144.05;63.99;57050.63;5055671;28;20083;-77
2023/03/01 06:20:25;;;;;;;22.73;11.98;;;-2.70;99.90;;;-144.05;64.48;57099.47;5056503;28;20076;-75
2023/03/01 06:22:52;;;;;;;20.42;12.32;;;-2.70;99.90;;;-144.05;64.77;57061.22;5055935;28;20052;-76
2023/03/01 06:25:24;;;;;;;22.00;12.80;;;-2.70;99.90;;;-144.05;65.01;57069.72;5054197;28;20481;-77
2023/03/01 06:27:52;;;;;;;20.00;11.57;;;-2.60;99.90;;;-144.05;64.24;57069.72;5053180;28;20036;-75
2023/03/01 06:30:22;;;;;;;18.30;11.07;;;-2.60;99.90;;;-144.05;64.09;57067.59;5053318;28;20180;-75
2023/03/01 06:32:50;;;;;;;20.70;11.70;;;-2.50;99.90;;;-144.05;63.79;57063.34;5056708;28;20027;-77
2023/03/01 06:35:19;;;;;;;23.13;11.57;;;-2.50;99.90;;;-144.05;63.23;57069.72;5056357;28;20037;-77
2023/03/01 06:37:47;;;;;;;23.48;12.43;;;-2.40;99.90;;;-144.05;63.65;57067.59;5059586;28;20021;-78
2023/03/01 06:40:14;;;;;;;21.77;11.80;;;-2.40;99.90;;;-144.05;63.08;57063.34;5057007;28;20384;-75
2023/03/01 06:42:47;;;;;;;21.38;12.52;;;-2.30;99.90;;;-144.05;62.96;57059.09;5057611;28;20041;-76
2023/03/01 06:45:12;;;;;;;22.95;12.43;;;-2.30;99.90;;;-144.05;62.97;57044.25;5056584;28;20107;-76
2023/03/01 06:47:38;;;;;;;21.50;12.23;;;-2.20;99.90;;;-144.05;62.85;57044.25;5057192;28;20021;-78
2023/03/01 06:50:05;;;;;;;20.95;12.75;;;-2.10;99.90;;;-144.05;62.55;57073.97;5057423;28;20032;-77
2023/03/01 06:52:31;;;;;;;24.35;12.13;;;-2.00;99.90;;;-144.05;62.35;57061.22;5059023;28;20139;-77
2023/03/01 06:54:57;;;;;;;22.35;11.65;;;-1.90;99.90;;;-144.05;61.86;57052.75;5074896;28;20025;-78
2023/03/01 06:57:23;;;;;;;20.23;11.60;;;-1.80;99.90;;;-144.05;61.38;57046.38;5063196;28;20036;-78
2023/03/01 06:59:49;;;;;;;22.25;12.80;;;-1.70;99.90;;;-144.05;61.35;57048.50;5077545;28;20064;-78
2023/03/01 07:02:16;;;;;;;23.13;12.60;;;-1.60;99.90;;;-144.05;60.70;57035.75;5062994;28;20021;-78
2023/03/01 07:04:42;;;;;;;22.85;12.82;;;-1.50;99.90;;;-144.05;60.60;57046.38;5063447;28;20029;-78
2023/03/01 07:07:08;;;;;;;20.67;12.07;;;-1.40;99.90;;;-144.05;60.13;57046.38;5061652;28;20051;-76
2023/03/01 07:09:34;;;;;;;21.27;12.27;;;-1.30;99.90;;;-144.05;60.06;57061.22;5055131;28;20061;-75
2023/03/01 07:12:01;;;;;;;24.70;12.02;;;-1.20;99.90;;;-144.05;60.19;57067.59;5056624;28;20040;-78
2023/03/01 07:14:27;;;;;;;19.15;12.00;;;-1.10;99.90;;;-144.05;59.37;57035.75;5060124;28;20029;-77
2023/03/01 07:16:54;;;;;;;22.77;12.10;;;-0.90;99.90;;;-144.05;58.25;57040.00;5060671;28;20125;-76
2023/03/01 07:19:21;;;;;;;22.88;13.35;;;-0.80;99.90;;;-144.05;57.66;57044.25;5058266;28;20157;-78
2023/03/01 07:21:47;;;;;;;22.17;12.23;;;-0.60;99.90;;;-144.05;57.33;57029.38;5077561;28;20029;-77
2023/03/01 07:24:13;;;;;;;19.60;11.27;;;-0.40;99.90;;;-144.05;56.15;57054.88;5060211;28;20036;-77
2023/03/01 07:26:39;;;;;;;21.25;11.82;;;-0.30;99.90;;;-144.05;56.11;57023.00;5059220;28;20029;-77
2023/03/01 07:29:09;;;;;;;20.58;12.90;;;-0.30;99.90;;;-144.05;55.37;57023.00;5058263;28;20024;-76
2023/03/01 07:31:35;;;;;;;25.67;12.68;;;-0.20;99.90;;;-144.05;55.22;57031.50;5060399;28;20039;-76
2023/03/01 07:34:01;;;;;;;18.15;12.20;;;-0.10;99.90;;;-144.05;54.94;57020.88;5058174;28;20025;-75
2023/03/01 07:36:27;;;;;;;20.77;12.57;;;0.00;99.90;;;-144.05;54.63;57027.25;5058756;28;20107;-76
2023/03/01 07:38:55;;;;;;;22.83;12.50;;;0.00;99.90;;;-144.05;54.07;57023.00;5059632;28;20029;-75
2023/03/01 07:41:21;;;;;;;24.45;13.60;;;0.10;99.90;;;-144.05;54.21;57006.00;5057326;28;20029;-76
2023/03/01 07:43:47;;;;;;;23.25;13.50;;;0.30;99.90;;;-144.05;53.47;57010.25;5058423;28;20025;-75
2023/03/01 07:46:13;;;;;;;22.30;13.40;;;0.30;99.90;;;-144.05;53.73;57016.63;5058355;28;20112;-77
2023/03/01 07:48:39;;;;;;;21.67;12.05;;;0.30;99.90;;;-144.05;53.21;57027.25;5058167;28;20036;-77
2023/03/01 07:51:07;;;;;;;20.92;12.55;;;0.40;99.90;;;-144.05;53.16;57020.88;5056959;28;20234;-77
2023/03/01 07:53:34;;;;;;;25.67;12.68;;;0.50;99.90;;;-144.05;53.05;57018.75;5058959;28;20099;-78
2023/03/01 07:56:13;;;;;;;29.13;12.55;;;0.50;99.90;;;-144.05;52.73;57023.00;5057928;28;20035;-76
2023/03/01 07:58:43;;;;;;;22.25;12.45;;;0.60;99.90;;;-144.05;52.43;56999.63;5057060;28;20445;-76
2023/03/01 08:01:18;;;;;;;22.55;13.10;;;0.70;99.90;;;-144.05;52.17;57006.00;5057967;28;20086;-76
2023/03/01 08:03:44;;;;;;;21.00;12.48;;;0.90;99.90;;;-144.05;51.38;56995.38;5058158;28;20048;-76
2023/03/01 08:06:13;;;;;;;17.55;11.02;;;1.00;99.90;;;-144.05;51.06;57003.88;5055275;28;20076;-74
2023/03/01 08:08:40;;;;;;;20.17;10.40;;;1.10;99.90;;;-144.05;50.54;57020.88;5057028;28;20029;-77
2023/03/01 08:11:12;;;;;;;17.60;10.70;;;1.20;99.90;;;-144.05;50.58;57025.13;5058281;28;20033;-76
2023/03/01 08:13:39;;;;;;;17.30;10.98;;;1.40;99.90;;;-144.05;49.80;56989.00;5057007;28;20067;-76
2023/03/01 08:16:11;;;;;;;20.65;11.90;;;1.40;99.90;;;-144.05;50.28;57006.00;5054397;28;20036;-77
2023/03/01 08:18:38;;;;;;;19.45;11.30;;;1.60;99.90;;;-144.05;48.58;56974.16;5057054;28;20040;-77
2023/03/01 08:21:18;;;;;;;18.77;10.52;;;1.70;99.90;;;-144.05;48.62;56995.38;5056326;28;20072;-73
2023/03/01 08:23:45;;;;;;;17.45;9.95;;;1.90;99.90;;;-144.05;48.16;56976.28;5056265;28;20079;-76
2023/03/01 08:26:20;;;;;;;17.52;9.77;;;1.80;99.90;;;-144.05;48.39;56997.50;5058112;28;20021;-77
2023/03/01 08:28:49;;;;;;;16.08;9.70;;;2.10;99.90;;;-144.05;47.26;56997.50;5057598;28;20033;-77
2023/03/01 08:31:29;;;;;;;16.48;10.07;;;2.40;99.90;;;-144.05;46.82;56989.00;5058665;28;20033;-75
2023/03/01 08:34:01;;;;;;;15.65;9.43;;;2.40;99.90;;;-144.05;46.83;56984.78;5055318;28;20068;-77
2023/03/01 08:36:46;;;;;;;17.05;10.43;;;2.50;99.90;;;-144.05;46.13;56989.00;5056485;28;20025;-76
2023/03/01 08:39:19;;;;;;;16.80;8.95;;;2.80;99.90;;;-144.05;45.06;56997.50;5056581;28;20473;-77
2023/03/01 08:41:46;;;;;;;16.10;9.07;;;2.90;99.90;;;-144.05;45.39;56965.66;5057441;28;20535;-77
2023/03/01 08:44:16;;;;;;;12.77;8.30;;;2.90;99.90;;;-144.05;45.11;56997.50;5057116;28;20032;-77
2023/03/01 08:46:43;;;;;;;13.63;8.38;;;3.10;99.90;;;-144.05;44.35;56963.53;5054027;28;20064;-76
2023/03/01 08:49:15;;;;;;;13.50;8.90;;;3.20;99.90;;;-144.05;43.54;56986.91;5055929;28;20053;-76
2023/03/01 08:51:44;;;;;;;16.90;8.45;;;3.20;99.90;;;-144.05;45.25;56986.91;5054794;28;20075;-73
2023/03/01 08:54:21;;;;;;;12.48;7.70;;;3.40;99.90;;;-144.05;44.06;56959.28;5056503;28;20143;-78
2023/03/01 08:56:48;;;;;;;13.90;7.82;;;3.60;99.90;;;-144.05;43.05;56982.66;5055740;28;20481;-75
2023/03/01 08:59:17;;;;;;;15.63;8.15;;;3.70;99.90;;;-144.05;42.10;56986.91;5055321;28;20410;-77
2023/03/01 09:01:43;;;;;;;13.18;7.57;;;3.90;99.90;;;-144.05;43.77;56967.78;5052871;28;20037;-77
2023/03/01 09:04:12;;;;;;;12.55;8.05;;;3.90;99.90;;;-144.05;43.11;56944.41;5070197;28;20060;-75
2023/03/01 09:06:38;;;;;;;13.50;7.70;;;4.20;99.90;;;-144.05;42.63;56982.66;5053280;28;20032;-76
2023/03/01 09:09:07;;;;;;;15.50;7.47;;;4.00;99.90;;;-144.05;42.88;56989.00;5054604;28;20033;-76
2023/03/01 09:11:33;;;;;;;14.13;8.15;;;3.90;99.90;;;-144.05;42.91;56955.03;5054219;28;20076;-77
2023/03/01 09:13:59;;;;;;;11.98;7.95;;;4.30;99.90;;;-144.05;40.71;56959.28;5055091;28;20475;-77
2023/03/01 09:16:25;;;;;;;14.00;7.00;;;4.50;99.90;;;-144.05;40.43;56965.66;5054464;28;20025;-76
2023/03/01 09:18:54;;;;;;;12.32;7.88;;;4.60;99.90;;;-144.05;39.90;56948.66;5076165;22;20012;-79
2023/03/01 09:21:23;;;;;;;11.05;7.63;;;4.60;99.90;;;-144.05;40.75;56955.03;5053725;28;20036;-78
2023/03/01 09:23:50;;;;;;;11.73;7.50;;;4.70;99.90;;;-144.05;41.03;56942.28;5053857;28;20106;-78
2023/03/01 09:26:22;;;;;;;15.40;7.30;;;4.60;99.90;;;-144.05;40.27;56969.91;5053378;28;20033;-77
2023/03/01 09:28:56;;;;;;;10.52;6.70;;;4.70;99.90;;;-144.05;40.24;56978.41;5053452;28;20049;-77
2023/03/01 09:31:24;;;;;;;14.98;7.82;;;4.80;99.90;;;-144.05;41.10;56982.66;5053651;28;20405;-76
2023/03/01 09:33:54;;;;;;;11.95;7.35;;;4.50;99.90;;;-144.05;41.12;56972.03;5058401;28;20059;-77
2023/03/01 09:36:25;;;;;;;12.77;6.60;;;4.40;99.90;;;-144.05;40.80;56955.03;5053655;28;20040;-77
2023/03/01 09:38:52;;;;;;;13.32;7.05;;;4.60;99.90;;;-144.05;40.98;56963.53;5054331;28;20064;-77
2023/03/01 09:41:42;;;;;;;12.35;6.68;;;4.70;99.90;;;-144.05;40.34;56948.66;5052784;28;20029;-78
2023/03/01 09:44:31;;;;;;;11.45;6.70;;;5.10;99.90;;;-144.05;40.20;56955.03;5054751;28;20029;-79
2023/03/01 09:46:58;;;;;;;8.73;6.50;;;5.10;99.90;;;-144.05;39.77;56933.78;5052529;28;20033;-77
2023/03/01 09:49:32;;;;;;;9.90;6.20;;;5.30;99.90;;;-144.05;40.04;56961.41;5051831;28;20047;-76
2023/03/01 09:52:36;;;;;;;11.77;7.53;;;5.40;99.90;;;-144.05;38.79;56944.41;5052531;28;20120;-77
2023/03/01 09:55:43;;;;;;;10.77;6.40;;;5.50;99.90;;;-144.05;39.67;56942.28;5052981;28;20040;-78
2023/03/01 09:58:46;;;;;;;9.77;6.45;;;5.40;99.90;;;-144.05;39.32;56946.53;5052654;28;20366;-76
2023/03/01 10:01:32;;;;;;;11.85;6.53;;;5.30;99.90;;;-144.05;39.25;56952.91;5052717;28;20036;-77
2023/03/01 10:04:44;;;;;;;11.30;6.13;;;5.30;99.90;;;-144.05;38.70;56948.66;5051486;28;20404;-76
2023/03/01 10:07:10;;;;;;;10.20;6.20;;;5.20;99.90;;;-144.05;38.46;56944.41;5051325;28;20029;-77
2023/03/01 10:09:45;;;;;;;11.52;6.43;;;5.50;99.90;;;-144.05;38.68;56959.28;5062161;28;20047;-78
2023/03/01 10:12:23;;;;;;;12.98;6.20;;;5.40;99.90;;;-144.05;38.57;56950.78;5065514;28;20036;-76
2023/03/01 10:15:12;;;;;;;8.07;5.55;;;5.60;99.90;;;-144.05;38.61;56948.66;5052588;28;20040;-76
2023/03/01 10:18:02;;;;;;;11.88;6.15;;;5.50;99.90;;;-144.05;38.83;56963.53;5053137;28;20032;-75